sensor_id;sensor_type;location;lat;lon;timestamp;P1;durP1;ratioP1;P2;durP2;ratioP2
66342;SDS011;53144;51.524;5.080;2022-11-14T00:00:36;14.82;;;11.35;;
66342;SDS011;53144;51.524;5.080;2022-11-14T00:03:04;14.15;;;11.52;;
66342;SDS011;53144;51.524;5.080;2022-11-14T00:05:31;17.13;;;12.40;;
66342;SDS011;53144;51.524;5.080;2022-11-14T00:07:57;14.95;;;11.93;;
66342;SDS011;53144;51.524;5.080;2022-11-14T00:10:23;14.57;;;12.52;;
66342;SDS011;53144;51.524;5.080;2022-11-14T00:12:48;18.65;;;12.45;;
66342;SDS011;53144;51.524;5.080;2022-11-14T00:15:14;15.00;;;12.15;;
66342;SDS011;53144;51.524;5.080;2022-11-14T00:17:40;16.23;;;11.93;;
66342;SDS011;53144;51.524;5.080;2022-11-14T00:20:06;13.50;;;11.20;;
66342;SDS011;53144;51.524;5.080;2022-11-14T00:22:35;15.55;;;12.55;;
66342;SDS011;53144;51.524;5.080;2022-11-14T00:25:01;15.82;;;11.98;;
66342;SDS011;53144;51.524;5.080;2022-11-14T00:27:26;15.55;;;11.32;;
66342;SDS011;53144;51.524;5.080;2022-11-14T00:29:54;13.32;;;11.35;;
66342;SDS011;53144;51.524;5.080;2022-11-14T00:32:20;15.15;;;12.27;;
66342;SDS011;53144;51.524;5.080;2022-11-14T00:34:46;14.93;;;12.30;;
66342;SDS011;53144;51.524;5.080;2022-11-14T00:39:41;15.65;;;11.73;;
66342;SDS011;53144;51.524;5.080;2022-11-14T00:42:06;15.38;;;11.63;;
66342;SDS011;53144;51.524;5.080;2022-11-14T00:44:35;16.95;;;12.90;;
66342;SDS011;53144;51.524;5.080;2022-11-14T00:47:01;13.60;;;11.18;;
66342;SDS011;53144;51.524;5.080;2022-11-14T00:49:29;13.00;;;11.00;;
66342;SDS011;53144;51.524;5.080;2022-11-14T00:51:54;15.23;;;11.52;;
66342;SDS011;53144;51.524;5.080;2022-11-14T00:54:20;15.00;;;11.48;;
66342;SDS011;53144;51.524;5.080;2022-11-14T00:56:45;14.35;;;11.00;;
66342;SDS011;53144;51.524;5.080;2022-11-14T00:59:11;13.52;;;10.05;;
66342;SDS011;53144;51.524;5.080;2022-11-14T01:01:36;12.13;;;10.30;;
66342;SDS011;53144;51.524;5.080;2022-11-14T01:04:07;14.98;;;10.32;;
66342;SDS011;53144;51.524;5.080;2022-11-14T01:06:32;14.43;;;9.90;;
66342;SDS011;53144;51.524;5.080;2022-11-14T01:08:58;13.02;;;10.05;;
66342;SDS011;53144;51.524;5.080;2022-11-14T01:11:23;16.88;;;10.73;;
66342;SDS011;53144;51.524;5.080;2022-11-14T01:13:48;15.88;;;11.05;;
66342;SDS011;53144;51.524;5.080;2022-11-14T01:16:14;14.23;;;11.20;;
66342;SDS011;53144;51.524;5.080;2022-11-14T01:18:40;15.98;;;11.68;;
66342;SDS011;53144;51.524;5.080;2022-11-14T01:21:07;15.05;;;11.93;;
66342;SDS011;53144;51.524;5.080;2022-11-14T01:23:34;15.57;;;11.48;;
66342;SDS011;53144;51.524;5.080;2022-11-14T01:28:29;14.30;;;10.95;;
66342;SDS011;53144;51.524;5.080;2022-11-14T01:30:55;15.90;;;11.65;;
66342;SDS011;53144;51.524;5.080;2022-11-14T01:33:21;14.38;;;10.80;;
66342;SDS011;53144;51.524;5.080;2022-11-14T01:35:46;17.40;;;11.55;;
66342;SDS011;53144;51.524;5.080;2022-11-14T01:38:12;14.20;;;11.13;;
66342;SDS011;53144;51.524;5.080;2022-11-14T01:40:42;12.73;;;10.07;;
66342;SDS011;53144;51.524;5.080;2022-11-14T01:48:30;15.20;;;11.48;;
66342;SDS011;53144;51.524;5.080;2022-11-14T01:51:22;12.23;;;9.85;;
66342;SDS011;53144;51.524;5.080;2022-11-14T01:53:49;15.38;;;10.75;;
66342;SDS011;53144;51.524;5.080;2022-11-14T01:56:21;13.88;;;10.70;;
66342;SDS011;53144;51.524;5.080;2022-11-14T01:58:55;11.13;;;9.95;;
66342;SDS011;53144;51.524;5.080;2022-11-14T02:01:31;11.18;;;9.55;;
66342;SDS011;53144;51.524;5.080;2022-11-14T02:04:04;15.13;;;10.18;;
66342;SDS011;53144;51.524;5.080;2022-11-14T02:06:33;14.23;;;10.48;;
66342;SDS011;53144;51.524;5.080;2022-11-14T02:11:29;10.35;;;8.57;;
66342;SDS011;53144;51.524;5.080;2022-11-14T02:13:56;10.32;;;8.77;;
66342;SDS011;53144;51.524;5.080;2022-11-14T02:16:23;9.38;;;8.10;;
66342;SDS011;53144;51.524;5.080;2022-11-14T02:18:49;10.88;;;8.68;;
66342;SDS011;53144;51.524;5.080;2022-11-14T02:21:15;10.40;;;8.13;;
66342;SDS011;53144;51.524;5.080;2022-11-14T02:23:43;10.02;;;8.20;;
66342;SDS011;53144;51.524;5.080;2022-11-14T02:26:08;9.40;;;7.60;;
66342;SDS011;53144;51.524;5.080;2022-11-14T02:28:34;10.25;;;8.63;;
66342;SDS011;53144;51.524;5.080;2022-11-14T02:31:00;10.85;;;8.98;;
66342;SDS011;53144;51.524;5.080;2022-11-14T02:33:25;12.23;;;9.38;;
66342;SDS011;53144;51.524;5.080;2022-11-14T02:35:50;9.55;;;8.55;;
66342;SDS011;53144;51.524;5.080;2022-11-14T02:38:16;12.82;;;9.35;;
66342;SDS011;53144;51.524;5.080;2022-11-14T02:40:41;11.85;;;9.70;;
66342;SDS011;53144;51.524;5.080;2022-11-14T02:43:07;13.48;;;10.70;;
66342;SDS011;53144;51.524;5.080;2022-11-14T02:45:32;14.80;;;11.35;;
66342;SDS011;53144;51.524;5.080;2022-11-14T02:47:58;15.23;;;11.25;;
66342;SDS011;53144;51.524;5.080;2022-11-14T02:50:23;13.70;;;10.30;;
66342;SDS011;53144;51.524;5.080;2022-11-14T02:52:49;12.17;;;10.10;;
66342;SDS011;53144;51.524;5.080;2022-11-14T02:55:14;14.27;;;9.85;;
66342;SDS011;53144;51.524;5.080;2022-11-14T02:57:42;11.63;;;9.52;;
66342;SDS011;53144;51.524;5.080;2022-11-14T03:00:08;12.88;;;10.55;;
66342;SDS011;53144;51.524;5.080;2022-11-14T03:02:34;11.90;;;9.23;;
66342;SDS011;53144;51.524;5.080;2022-11-14T03:04:59;16.53;;;10.87;;
66342;SDS011;53144;51.524;5.080;2022-11-14T03:07:24;13.93;;;10.35;;
66342;SDS011;53144;51.524;5.080;2022-11-14T03:09:50;12.90;;;10.10;;
66342;SDS011;53144;51.524;5.080;2022-11-14T03:12:16;13.43;;;10.03;;
66342;SDS011;53144;51.524;5.080;2022-11-14T03:14:42;14.80;;;10.82;;
66342;SDS011;53144;51.524;5.080;2022-11-14T03:17:07;13.43;;;10.70;;
66342;SDS011;53144;51.524;5.080;2022-11-14T03:19:35;15.73;;;10.45;;
66342;SDS011;53144;51.524;5.080;2022-11-14T03:22:01;12.30;;;9.87;;
66342;SDS011;53144;51.524;5.080;2022-11-14T03:24:29;16.75;;;11.25;;
66342;SDS011;53144;51.524;5.080;2022-11-14T03:26:55;13.65;;;9.15;;
66342;SDS011;53144;51.524;5.080;2022-11-14T03:29:20;11.38;;;8.95;;
66342;SDS011;53144;51.524;5.080;2022-11-14T03:31:45;12.60;;;9.57;;
66342;SDS011;53144;51.524;5.080;2022-11-14T03:34:11;11.43;;;9.48;;
66342;SDS011;53144;51.524;5.080;2022-11-14T03:36:36;13.10;;;9.43;;
66342;SDS011;53144;51.524;5.080;2022-11-14T03:39:02;14.55;;;8.95;;
66342;SDS011;53144;51.524;5.080;2022-11-14T03:43:54;14.30;;;9.50;;
66342;SDS011;53144;51.524;5.080;2022-11-14T03:46:19;14.63;;;9.55;;
66342;SDS011;53144;51.524;5.080;2022-11-14T03:48:44;11.15;;;9.40;;
66342;SDS011;53144;51.524;5.080;2022-11-14T03:51:10;10.63;;;8.90;;
66342;SDS011;53144;51.524;5.080;2022-11-14T03:53:35;12.95;;;9.52;;
66342;SDS011;53144;51.524;5.080;2022-11-14T03:56:01;12.73;;;8.60;;
66342;SDS011;53144;51.524;5.080;2022-11-14T03:58:26;11.82;;;9.07;;
66342;SDS011;53144;51.524;5.080;2022-11-14T04:00:52;11.70;;;8.45;;
66342;SDS011;53144;51.524;5.080;2022-11-14T04:03:19;10.75;;;8.52;;
66342;SDS011;53144;51.524;5.080;2022-11-14T04:05:45;14.88;;;9.63;;
66342;SDS011;53144;51.524;5.080;2022-11-14T04:08:11;13.50;;;9.35;;
66342;SDS011;53144;51.524;5.080;2022-11-14T04:10:36;11.70;;;9.10;;
66342;SDS011;53144;51.524;5.080;2022-11-14T04:13:02;12.18;;;8.45;;
66342;SDS011;53144;51.524;5.080;2022-11-14T04:15:28;11.07;;;8.68;;
66342;SDS011;53144;51.524;5.080;2022-11-14T04:17:54;12.55;;;8.75;;
66342;SDS011;53144;51.524;5.080;2022-11-14T04:20:19;12.90;;;9.43;;
66342;SDS011;53144;51.524;5.080;2022-11-14T04:22:44;11.43;;;8.77;;
66342;SDS011;53144;51.524;5.080;2022-11-14T04:25:10;12.30;;;8.73;;
66342;SDS011;53144;51.524;5.080;2022-11-14T04:27:35;11.73;;;8.55;;
66342;SDS011;53144;51.524;5.080;2022-11-14T04:30:01;12.80;;;8.75;;
66342;SDS011;53144;51.524;5.080;2022-11-14T04:32:27;11.88;;;8.15;;
66342;SDS011;53144;51.524;5.080;2022-11-14T04:34:55;12.00;;;7.97;;
66342;SDS011;53144;51.524;5.080;2022-11-14T04:37:20;14.38;;;9.02;;
66342;SDS011;53144;51.524;5.080;2022-11-14T04:39:46;10.57;;;8.60;;
66342;SDS011;53144;51.524;5.080;2022-11-14T04:42:11;11.03;;;8.53;;
66342;SDS011;53144;51.524;5.080;2022-11-14T04:44:36;11.23;;;8.98;;
66342;SDS011;53144;51.524;5.080;2022-11-14T04:47:09;12.60;;;8.70;;
66342;SDS011;53144;51.524;5.080;2022-11-14T04:49:35;12.05;;;8.20;;
66342;SDS011;53144;51.524;5.080;2022-11-14T04:52:00;11.02;;;8.13;;
66342;SDS011;53144;51.524;5.080;2022-11-14T04:54:26;13.68;;;8.07;;
66342;SDS011;53144;51.524;5.080;2022-11-14T04:56:51;9.80;;;8.10;;
66342;SDS011;53144;51.524;5.080;2022-11-14T04:59:16;9.38;;;7.72;;
66342;SDS011;53144;51.524;5.080;2022-11-14T05:01:42;12.88;;;8.25;;
66342;SDS011;53144;51.524;5.080;2022-11-14T05:04:07;11.05;;;8.15;;
66342;SDS011;53144;51.524;5.080;2022-11-14T05:06:33;13.33;;;8.47;;
66342;SDS011;53144;51.524;5.080;2022-11-14T05:08:58;11.80;;;8.07;;
66342;SDS011;53144;51.524;5.080;2022-11-14T05:11:23;12.10;;;7.93;;
66342;SDS011;53144;51.524;5.080;2022-11-14T05:13:49;11.25;;;8.40;;
66342;SDS011;53144;51.524;5.080;2022-11-14T05:16:14;11.23;;;8.05;;
66342;SDS011;53144;51.524;5.080;2022-11-14T05:18:40;12.25;;;8.23;;
66342;SDS011;53144;51.524;5.080;2022-11-14T05:21:05;11.98;;;8.40;;
66342;SDS011;53144;51.524;5.080;2022-11-14T05:23:31;10.57;;;8.65;;
66342;SDS011;53144;51.524;5.080;2022-11-14T05:26:04;12.13;;;8.45;;
66342;SDS011;53144;51.524;5.080;2022-11-14T05:28:31;14.27;;;8.77;;
66342;SDS011;53144;51.524;5.080;2022-11-14T05:33:29;13.45;;;8.25;;
66342;SDS011;53144;51.524;5.080;2022-11-14T05:35:55;10.23;;;7.93;;
66342;SDS011;53144;51.524;5.080;2022-11-14T05:38:21;11.60;;;8.02;;
66342;SDS011;53144;51.524;5.080;2022-11-14T05:40:46;13.15;;;8.60;;
66342;SDS011;53144;51.524;5.080;2022-11-14T05:43:12;9.67;;;8.37;;
66342;SDS011;53144;51.524;5.080;2022-11-14T05:45:39;12.73;;;9.13;;
66342;SDS011;53144;51.524;5.080;2022-11-14T05:48:05;12.90;;;8.90;;
66342;SDS011;53144;51.524;5.080;2022-11-14T05:50:30;13.87;;;8.50;;
66342;SDS011;53144;51.524;5.080;2022-11-14T05:52:55;12.33;;;9.10;;
66342;SDS011;53144;51.524;5.080;2022-11-14T05:55:21;14.03;;;9.07;;
66342;SDS011;53144;51.524;5.080;2022-11-14T05:57:46;13.50;;;9.38;;
66342;SDS011;53144;51.524;5.080;2022-11-14T06:00:14;11.65;;;8.18;;
66342;SDS011;53144;51.524;5.080;2022-11-14T06:02:40;14.63;;;8.82;;
66342;SDS011;53144;51.524;5.080;2022-11-14T06:05:05;10.17;;;8.43;;
66342;SDS011;53144;51.524;5.080;2022-11-14T06:07:31;10.57;;;8.43;;
66342;SDS011;53144;51.524;5.080;2022-11-14T06:09:56;10.63;;;8.23;;
66342;SDS011;53144;51.524;5.080;2022-11-14T06:12:21;11.47;;;8.10;;
66342;SDS011;53144;51.524;5.080;2022-11-14T06:14:47;10.25;;;8.05;;
66342;SDS011;53144;51.524;5.080;2022-11-14T06:17:12;11.52;;;8.43;;
66342;SDS011;53144;51.524;5.080;2022-11-14T06:19:37;10.20;;;7.60;;
66342;SDS011;53144;51.524;5.080;2022-11-14T06:22:03;12.10;;;9.10;;
66342;SDS011;53144;51.524;5.080;2022-11-14T06:24:28;11.73;;;7.90;;
66342;SDS011;53144;51.524;5.080;2022-11-14T06:26:53;10.05;;;7.72;;
66342;SDS011;53144;51.524;5.080;2022-11-14T06:29:19;13.27;;;8.53;;
66342;SDS011;53144;51.524;5.080;2022-11-14T06:31:44;15.27;;;8.57;;
66342;SDS011;53144;51.524;5.080;2022-11-14T06:34:10;11.13;;;8.27;;
66342;SDS011;53144;51.524;5.080;2022-11-14T06:36:37;11.13;;;7.97;;
66342;SDS011;53144;51.524;5.080;2022-11-14T06:39:05;10.95;;;7.65;;
66342;SDS011;53144;51.524;5.080;2022-11-14T06:41:30;10.80;;;7.68;;
66342;SDS011;53144;51.524;5.080;2022-11-14T06:43:56;12.47;;;8.07;;
66342;SDS011;53144;51.524;5.080;2022-11-14T06:46:21;10.18;;;8.02;;
66342;SDS011;53144;51.524;5.080;2022-11-14T06:48:47;11.75;;;8.90;;
66342;SDS011;53144;51.524;5.080;2022-11-14T06:51:14;12.23;;;8.13;;
66342;SDS011;53144;51.524;5.080;2022-11-14T06:53:41;12.25;;;7.80;;
66342;SDS011;53144;51.524;5.080;2022-11-14T06:56:17;11.15;;;8.00;;
66342;SDS011;53144;51.524;5.080;2022-11-14T07:01:12;11.65;;;8.13;;
66342;SDS011;53144;51.524;5.080;2022-11-14T07:03:42;14.80;;;8.70;;
66342;SDS011;53144;51.524;5.080;2022-11-14T07:06:09;12.02;;;8.25;;
66342;SDS011;53144;51.524;5.080;2022-11-14T07:08:36;12.63;;;8.05;;
66342;SDS011;53144;51.524;5.080;2022-11-14T07:11:06;9.48;;;7.20;;
66342;SDS011;53144;51.524;5.080;2022-11-14T07:13:36;11.45;;;8.02;;
66342;SDS011;53144;51.524;5.080;2022-11-14T07:16:03;13.25;;;7.65;;
66342;SDS011;53144;51.524;5.080;2022-11-14T07:18:30;11.93;;;8.05;;
66342;SDS011;53144;51.524;5.080;2022-11-14T07:20:57;13.55;;;8.45;;
66342;SDS011;53144;51.524;5.080;2022-11-14T07:23:23;11.45;;;8.23;;
66342;SDS011;53144;51.524;5.080;2022-11-14T07:25:48;13.47;;;8.43;;
66342;SDS011;53144;51.524;5.080;2022-11-14T07:28:14;13.40;;;8.20;;
66342;SDS011;53144;51.524;5.080;2022-11-14T07:30:40;12.87;;;8.70;;
66342;SDS011;53144;51.524;5.080;2022-11-14T07:33:05;13.68;;;9.43;;
66342;SDS011;53144;51.524;5.080;2022-11-14T07:35:31;11.02;;;8.57;;
66342;SDS011;53144;51.524;5.080;2022-11-14T07:38:00;13.48;;;8.75;;
66342;SDS011;53144;51.524;5.080;2022-11-14T07:40:27;12.98;;;9.02;;
66342;SDS011;53144;51.524;5.080;2022-11-14T07:42:56;13.65;;;8.93;;
66342;SDS011;53144;51.524;5.080;2022-11-14T07:45:25;12.35;;;9.00;;
66342;SDS011;53144;51.524;5.080;2022-11-14T07:47:55;16.42;;;9.57;;
66342;SDS011;53144;51.524;5.080;2022-11-14T07:50:24;16.70;;;9.80;;
66342;SDS011;53144;51.524;5.080;2022-11-14T07:52:51;16.48;;;10.57;;
66342;SDS011;53144;51.524;5.080;2022-11-14T07:55:17;19.23;;;9.70;;
66342;SDS011;53144;51.524;5.080;2022-11-14T07:57:43;13.77;;;9.77;;
66342;SDS011;53144;51.524;5.080;2022-11-14T08:00:09;13.52;;;9.23;;
66342;SDS011;53144;51.524;5.080;2022-11-14T08:02:35;14.30;;;10.13;;
66342;SDS011;53144;51.524;5.080;2022-11-14T08:05:01;16.58;;;10.13;;
66342;SDS011;53144;51.524;5.080;2022-11-14T08:07:26;13.50;;;8.85;;
66342;SDS011;53144;51.524;5.080;2022-11-14T08:09:53;17.80;;;8.63;;
66342;SDS011;53144;51.524;5.080;2022-11-14T08:12:18;11.60;;;8.98;;
66342;SDS011;53144;51.524;5.080;2022-11-14T08:14:44;12.90;;;9.60;;
66342;SDS011;53144;51.524;5.080;2022-11-14T08:17:12;12.25;;;9.23;;
66342;SDS011;53144;51.524;5.080;2022-11-14T08:19:37;10.88;;;9.25;;
66342;SDS011;53144;51.524;5.080;2022-11-14T08:22:03;10.65;;;8.43;;
66342;SDS011;53144;51.524;5.080;2022-11-14T08:24:28;12.80;;;9.52;;
66342;SDS011;53144;51.524;5.080;2022-11-14T08:26:54;15.27;;;9.23;;
66342;SDS011;53144;51.524;5.080;2022-11-14T08:29:19;11.48;;;8.60;;
66342;SDS011;53144;51.524;5.080;2022-11-14T08:31:45;10.75;;;8.43;;
66342;SDS011;53144;51.524;5.080;2022-11-14T08:34:14;12.68;;;9.20;;
66342;SDS011;53144;51.524;5.080;2022-11-14T08:36:40;12.50;;;8.73;;
66342;SDS011;53144;51.524;5.080;2022-11-14T08:39:05;11.30;;;8.68;;
66342;SDS011;53144;51.524;5.080;2022-11-14T08:41:31;16.27;;;9.40;;
66342;SDS011;53144;51.524;5.080;2022-11-14T08:43:56;12.90;;;9.85;;
66342;SDS011;53144;51.524;5.080;2022-11-14T08:46:22;12.73;;;9.95;;
66342;SDS011;53144;51.524;5.080;2022-11-14T08:48:47;11.87;;;8.83;;
66342;SDS011;53144;51.524;5.080;2022-11-14T08:51:12;11.13;;;8.97;;
66342;SDS011;53144;51.524;5.080;2022-11-14T08:53:38;12.30;;;9.52;;
66342;SDS011;53144;51.524;5.080;2022-11-14T08:56:07;14.20;;;9.93;;
66342;SDS011;53144;51.524;5.080;2022-11-14T08:58:36;11.00;;;8.80;;
66342;SDS011;53144;51.524;5.080;2022-11-14T09:01:03;12.57;;;8.98;;
66342;SDS011;53144;51.524;5.080;2022-11-14T09:06:20;11.70;;;8.93;;
66342;SDS011;53144;51.524;5.080;2022-11-14T09:08:46;13.98;;;9.10;;
66342;SDS011;53144;51.524;5.080;2022-11-14T09:11:12;10.82;;;8.32;;
66342;SDS011;53144;51.524;5.080;2022-11-14T09:13:37;10.02;;;8.10;;
66342;SDS011;53144;51.524;5.080;2022-11-14T09:16:06;12.53;;;8.20;;
66342;SDS011;53144;51.524;5.080;2022-11-14T09:18:32;12.80;;;8.35;;
66342;SDS011;53144;51.524;5.080;2022-11-14T09:21:01;9.88;;;7.80;;
66342;SDS011;53144;51.524;5.080;2022-11-14T09:23:34;11.00;;;7.57;;
66342;SDS011;53144;51.524;5.080;2022-11-14T09:26:07;11.38;;;8.32;;
66342;SDS011;53144;51.524;5.080;2022-11-14T09:28:36;14.35;;;8.50;;
66342;SDS011;53144;51.524;5.080;2022-11-14T09:31:08;11.80;;;8.52;;
66342;SDS011;53144;51.524;5.080;2022-11-14T09:33:38;11.07;;;8.48;;
66342;SDS011;53144;51.524;5.080;2022-11-14T09:36:07;12.23;;;8.52;;
66342;SDS011;53144;51.524;5.080;2022-11-14T09:38:43;9.20;;;7.85;;
66342;SDS011;53144;51.524;5.080;2022-11-14T09:41:22;11.93;;;8.55;;
66342;SDS011;53144;51.524;5.080;2022-11-14T09:46:43;11.27;;;7.90;;
66342;SDS011;53144;51.524;5.080;2022-11-14T09:49:19;8.63;;;7.38;;
66342;SDS011;53144;51.524;5.080;2022-11-14T09:51:51;13.40;;;7.07;;
66342;SDS011;53144;51.524;5.080;2022-11-14T09:54:37;9.23;;;6.47;;
66342;SDS011;53144;51.524;5.080;2022-11-14T09:57:17;10.93;;;6.63;;
66342;SDS011;53144;51.524;5.080;2022-11-14T09:59:44;8.57;;;6.63;;
66342;SDS011;53144;51.524;5.080;2022-11-14T10:07:56;8.15;;;6.68;;
66342;SDS011;53144;51.524;5.080;2022-11-14T10:20:12;9.70;;;6.47;;
66342;SDS011;53144;51.524;5.080;2022-11-14T10:31:31;13.38;;;7.57;;
66342;SDS011;53144;51.524;5.080;2022-11-14T10:34:24;10.32;;;6.95;;
66342;SDS011;53144;51.524;5.080;2022-11-14T10:37:18;7.63;;;6.53;;
66342;SDS011;53144;51.524;5.080;2022-11-14T10:42:24;10.35;;;6.53;;
66342;SDS011;53144;51.524;5.080;2022-11-14T10:47:59;8.52;;;6.32;;
66342;SDS011;53144;51.524;5.080;2022-11-14T10:59:50;10.75;;;7.28;;
66342;SDS011;53144;51.524;5.080;2022-11-14T11:15:43;11.13;;;7.47;;
66342;SDS011;53144;51.524;5.080;2022-11-14T11:21:10;10.65;;;8.30;;
66342;SDS011;53144;51.524;5.080;2022-11-14T11:26:32;9.85;;;7.53;;
66342;SDS011;53144;51.524;5.080;2022-11-14T11:34:20;11.80;;;7.75;;
66342;SDS011;53144;51.524;5.080;2022-11-14T11:36:49;8.55;;;7.43;;
66342;SDS011;53144;51.524;5.080;2022-11-14T11:39:23;10.93;;;7.20;;
66342;SDS011;53144;51.524;5.080;2022-11-14T11:42:13;10.55;;;7.38;;
66342;SDS011;53144;51.524;5.080;2022-11-14T11:47:49;10.15;;;7.60;;
66342;SDS011;53144;51.524;5.080;2022-11-14T11:50:20;10.75;;;7.63;;
66342;SDS011;53144;51.524;5.080;2022-11-14T11:55:40;10.95;;;7.40;;
66342;SDS011;53144;51.524;5.080;2022-11-14T11:58:15;10.55;;;7.57;;
66342;SDS011;53144;51.524;5.080;2022-11-14T12:00:58;9.05;;;7.43;;
66342;SDS011;53144;51.524;5.080;2022-11-14T12:03:33;8.82;;;7.88;;
66342;SDS011;53144;51.524;5.080;2022-11-14T12:06:02;10.13;;;7.97;;
66342;SDS011;53144;51.524;5.080;2022-11-14T12:12:00;9.32;;;7.45;;
66342;SDS011;53144;51.524;5.080;2022-11-14T12:14:48;9.02;;;7.68;;
66342;SDS011;53144;51.524;5.080;2022-11-14T12:28:29;9.68;;;7.50;;
66342;SDS011;53144;51.524;5.080;2022-11-14T12:31:23;9.88;;;7.57;;
66342;SDS011;53144;51.524;5.080;2022-11-14T12:33:53;11.07;;;7.18;;
66342;SDS011;53144;51.524;5.080;2022-11-14T12:36:32;10.98;;;7.65;;
66342;SDS011;53144;51.524;5.080;2022-11-14T12:39:01;13.35;;;7.63;;
66342;SDS011;53144;51.524;5.080;2022-11-14T12:41:32;11.82;;;8.13;;
66342;SDS011;53144;51.524;5.080;2022-11-14T12:50:10;11.07;;;7.95;;
66342;SDS011;53144;51.524;5.080;2022-11-14T13:20:26;10.73;;;7.25;;
66342;SDS011;53144;51.524;5.080;2022-11-14T13:28:51;8.80;;;7.10;;
66342;SDS011;53144;51.524;5.080;2022-11-14T13:31:54;12.35;;;7.00;;
66342;SDS011;53144;51.524;5.080;2022-11-14T13:40:27;10.00;;;6.88;;
66342;SDS011;53144;51.524;5.080;2022-11-14T13:52:22;9.13;;;6.60;;
66342;SDS011;53144;51.524;5.080;2022-11-14T13:55:16;11.05;;;6.78;;
